Time;durP1;ratioP1;P1;durP2;ratioP2;P2;SDS_P1;SDS_P2;PMS_P1;PMS_P2;Temp;Humidity;BMP_temperature;BMP_pressure;BME280_temperature;BME280_humidity;BME280_pressure;Samples;Min_cycle;Max_cycle;Signal;HPM_P1;HPM_P2
2023/03/20 00:00:23;;;;;;;21.33;11.00;;;;;;;10.86;50.33;94946.50;4991225;28;20316;-52
2023/03/20 00:02:50;;;;;;;14.77;9.60;;;;;;;10.84;50.43;94935.59;4991271;28;20201;-49
2023/03/20 00:05:20;;;;;;;15.73;11.23;;;;;;;10.81;50.38;94938.41;4991352;28;20200;-53
2023/03/20 00:07:48;;;;;;;17.87;10.80;;;;;;;10.82;50.43;94939.22;4991523;28;20220;-50
2023/03/20 00:10:16;;;;;;;15.67;10.13;;;;;;;10.81;50.39;94938.41;4991628;28;20239;-63
2023/03/20 00:12:47;;;;;;;15.23;10.00;;;;;;;10.79;50.37;94938.56;4991879;28;20221;-50
2023/03/20 00:15:24;;;;;;;18.13;10.63;;;;;;;10.77;50.45;94934.50;4990638;28;20391;-54
2023/03/20 00:17:52;;;;;;;14.20;9.33;;;;;;;10.76;50.43;94932.91;4990676;28;20184;-53
2023/03/20 00:20:19;;;;;;;15.43;10.00;;;;;;;10.73;50.54;94928.84;4991014;28;20220;-52
2023/03/20 00:22:45;;;;;;;18.37;9.50;;;;;;;10.72;50.55;94932.34;4990890;28;20650;-49
2023/03/20 00:25:17;;;;;;;14.80;9.23;;;;;;;10.70;50.73;94928.28;4991168;28;20193;-52
2023/03/20 00:27:46;;;;;;;15.77;9.90;;;;;;;10.68;50.50;94928.44;4991016;28;20208;-51
2023/03/20 00:30:23;;;;;;;16.07;9.17;;;;;;;10.67;50.79;94926.81;4991138;28;20240;-50
2023/03/20 00:32:51;;;;;;;14.30;8.93;;;;;;;10.61;50.75;94921.41;4990150;28;20271;-52
2023/03/20 00:35:21;;;;;;;16.77;9.93;;;;;;;10.61;50.74;94923.97;4991566;28;20217;-52
2023/03/20 00:37:49;;;;;;;16.23;9.13;;;;;;;10.59;50.76;94925.88;4990854;28;20609;-51
2023/03/20 00:40:16;;;;;;;16.17;9.33;;;;;;;10.57;50.85;94917.50;4990629;28;20223;-53
2023/03/20 00:42:46;;;;;;;14.97;9.73;;;;;;;10.54;51.10;94914.28;4990256;28;20680;-54
2023/03/20 00:45:16;;;;;;;15.77;9.93;;;;;;;10.53;50.96;94919.50;4990479;28;20193;-55
2023/03/20 00:47:44;;;;;;;14.33;8.87;;;;;;;10.51;50.97;94913.72;4990403;28;20188;-56
2023/03/20 00:50:16;;;;;;;12.93;9.20;;;;;;;10.50;51.01;94922.34;4990606;28;20224;-50
2023/03/20 00:52:44;;;;;;;17.50;9.47;;;;;;;10.46;51.13;94924.34;4990386;28;20292;-54
2023/03/20 00:55:11;;;;;;;14.23;9.63;;;;;;;10.45;51.14;94919.38;4990584;28;20232;-50
2023/03/20 00:57:43;;;;;;;17.13;9.33;;;;;;;10.43;51.37;94918.69;4989895;28;20324;-53
2023/03/20 01:00:24;;;;;;;14.57;9.63;;;;;;;10.37;51.25;94907.25;4989876;28;20323;-51
2023/03/20 01:02:52;;;;;;;17.30;10.13;;;;;;;10.38;51.29;94910.63;4989711;28;20201;-53
2023/03/20 01:05:20;;;;;;;13.97;9.70;;;;;;;10.35;51.35;94908.31;4988030;28;20868;-54
2023/03/20 01:07:47;;;;;;;12.87;8.87;;;;;;;10.34;51.36;94909.25;4990045;28;20200;-51
2023/03/20 01:10:14;;;;;;;14.63;9.13;;;;;;;10.32;51.40;94899.16;4989922;28;20658;-55
2023/03/20 01:12:43;;;;;;;16.10;10.33;;;;;;;10.29;51.53;94901.97;4989765;28;20672;-52
2023/03/20 01:15:20;;;;;;;14.67;9.40;;;;;;;10.27;51.66;94903.84;4989636;28;20221;-49
2023/03/20 01:17:47;;;;;;;15.77;9.20;;;;;;;10.25;51.58;94898.06;4990163;28;20267;-54
2023/03/20 01:20:23;;;;;;;15.87;9.00;;;;;;;10.23;51.62;94893.06;4990156;28;20261;-57
2023/03/20 01:22:50;;;;;;;16.70;9.97;;;;;;;10.22;51.71;94893.19;4989913;28;20212;-50
2023/03/20 01:25:17;;;;;;;16.23;8.47;;;;;;;10.20;51.69;94895.88;4990001;28;20204;-53
2023/03/20 01:27:46;;;;;;;19.60;9.70;;;;;;;10.15;51.81;94890.34;4989460;28;20200;-52
2023/03/20 01:30:23;;;;;;;14.60;9.30;;;;;;;10.16;51.75;94893.72;4988993;28;20193;-49
2023/03/20 01:32:50;;;;;;;13.67;8.37;;;;;;;10.14;51.90;94888.72;4988038;28;20192;-50
2023/03/20 01:35:21;;;;;;;17.70;9.83;;;;;;;10.14;51.86;94895.56;4989933;28;20197;-50
2023/03/20 01:37:48;;;;;;;14.33;8.17;;;;;;;10.13;51.92;94894.75;4989630;28;20565;-50
2023/03/20 01:40:33;;;;;;;16.50;9.80;;;;;;;10.10;51.94;94902.69;4989747;28;20221;-50
2023/03/20 01:43:01;;;;;;;17.07;9.73;;;;;;;10.08;52.17;94898.66;4990116;28;20393;-55
2023/03/20 01:45:34;;;;;;;14.53;10.37;;;;;;;10.07;52.27;94904.72;4990232;28;20193;-49
2023/03/20 01:48:03;;;;;;;18.70;9.93;;;;;;;10.03;52.09;94901.59;4989915;28;20267;-53
2023/03/20 01:50:32;;;;;;;15.83;9.50;;;;;;;10.03;52.26;94906.72;4989743;28;20200;-49
2023/03/20 01:53:06;;;;;;;12.87;9.00;;;;;;;10.00;52.33;94914.63;4989832;28;20197;-49
2023/03/20 01:55:34;;;;;;;15.93;9.93;;;;;;;9.99;52.32;94910.47;4989344;28;20203;-50
2023/03/20 01:58:07;;;;;;;17.33;9.87;;;;;;;9.96;52.64;94911.50;4988214;28;20197;-50
2023/03/20 02:00:36;;;;;;;20.03;9.70;;;;;;;9.90;52.53;94901.81;4989362;28;20236;-51
2023/03/20 02:03:06;;;;;;;15.47;9.70;;;;;;;9.91;52.41;94903.44;4989139;28;20550;-52
2023/03/20 02:05:33;;;;;;;17.77;10.27;;;;;;;9.93;52.53;94905.84;4989843;28;20550;-51
2023/03/20 02:08:11;;;;;;;14.30;9.53;;;;;;;9.90;52.46;94906.13;4989573;28;20196;-50
2023/03/20 02:10:39;;;;;;;15.37;9.23;;;;;;;9.89;52.57;94895.09;4992118;28;20642;-48
2023/03/20 02:13:07;;;;;;;13.07;8.80;;;;;;;9.87;52.62;94896.97;4993738;28;20292;-52
2023/03/20 02:15:36;;;;;;;14.40;8.83;;;;;;;9.82;52.67;94888.06;4993509;28;20197;-55
2023/03/20 02:18:03;;;;;;;12.30;8.17;;;;;;;9.84;52.70;94894.66;4993572;28;20197;-49
2023/03/20 02:20:44;;;;;;;16.47;9.07;;;;;;;9.83;52.74;94903.25;4993509;28;20244;-56
2023/03/20 02:24:04;;;;;;;18.27;8.97;;;;;;;9.80;52.79;94896.69;4993020;28;20200;-55
2023/03/20 02:26:43;;;;;;;13.80;8.90;;;;;;;9.78;52.90;94897.72;4993268;28;20659;-51
2023/03/20 02:29:58;;;;;;;16.93;10.30;;;;;;;9.76;52.89;94902.97;4993148;28;20650;-52
2023/03/20 02:33:06;;;;;;;16.33;8.90;;;;;;;9.73;52.86;94907.53;4992743;28;20283;-55
2023/03/20 02:35:53;;;;;;;13.37;8.17;;;;;;;9.70;53.27;94900.91;4913957;29;20683;-49
2023/03/20 02:38:50;;;;;;;14.30;8.13;;;;;;;9.68;53.12;94900.25;4913134;29;20188;-54
2023/03/20 02:41:26;;;;;;;12.87;8.67;;;;;;;9.67;52.98;94897.81;4909939;29;20715;-51
2023/03/20 02:44:02;;;;;;;12.90;8.47;;;;;;;9.65;53.31;94897.94;4913760;29;20250;-53
2023/03/20 02:46:39;;;;;;;13.13;7.67;;;;;;;9.62;53.48;94898.19;4913355;29;20200;-50
2023/03/20 02:49:15;;;;;;;15.33;8.57;;;;;;;9.61;53.49;94896.56;4913449;29;20676;-52
2023/03/20 02:51:50;;;;;;;16.30;8.33;;;;;;;9.60;53.35;94883.94;4913323;29;20199;-49
2023/03/20 02:54:24;;;;;;;14.27;9.33;;;;;;;9.60;53.34;94884.75;4913758;29;20203;-50
2023/03/20 02:57:00;;;;;;;11.73;7.97;;;;;;;9.60;53.43;94889.03;4913083;29;20401;-50
2023/03/20 02:59:32;;;;;;;16.63;8.50;;;;;;;9.59;53.39;94892.53;4913705;29;20230;-52
2023/03/20 03:02:06;;;;;;;14.83;8.73;;;;;;;9.54;53.50;94886.06;4912954;29;20238;-49
2023/03/20 03:04:36;;;;;;;12.77;8.50;;;;;;;9.52;53.55;94874.34;4913144;29;20296;-53
2023/03/20 03:07:07;;;;;;;11.67;8.40;;;;;;;9.55;53.46;94885.13;4913532;29;20199;-54
2023/03/20 03:09:38;;;;;;;11.53;8.03;;;;;;;9.57;53.58;94890.09;4913102;29;20188;-51
2023/03/20 03:12:12;;;;;;;12.00;7.80;;;;;;;9.54;53.70;94890.34;4959820;28;20370;-49
2023/03/20 03:14:42;;;;;;;15.80;8.23;;;;;;;9.53;53.71;94886.97;4992082;28;20657;-51
2023/03/20 03:17:12;;;;;;;14.27;8.80;;;;;;;9.53;53.83;94883.63;4992556;28;20220;-51
2023/03/20 03:19:43;;;;;;;12.73;7.57;;;;;;;9.52;53.67;94889.66;4992184;28;20193;-52
2023/03/20 03:22:11;;;;;;;14.03;8.63;;;;;;;9.50;53.96;94886.44;4991015;28;20701;-51
2023/03/20 03:24:42;;;;;;;12.43;7.80;;;;;;;9.49;53.78;94883.06;4991866;28;20201;-52
2023/03/20 03:27:17;;;;;;;12.50;8.00;;;;;;;9.50;54.19;94883.91;4991815;28;20185;-49
2023/03/20 03:29:51;;;;;;;12.97;7.80;;;;;;;9.49;53.87;94884.81;4991996;28;20181;-52
2023/03/20 03:32:31;;;;;;;15.73;8.37;;;;;;;9.46;53.75;94885.88;4992326;28;20197;-50
2023/03/20 03:35:00;;;;;;;12.40;8.53;;;;;;;9.47;53.97;94887.50;4991909;28;20301;-49
2023/03/20 03:37:43;;;;;;;14.40;8.67;;;;;;;9.46;53.96;94891.00;4991890;28;20197;-51
2023/03/20 03:40:19;;;;;;;17.47;8.73;;;;;;;9.44;53.95;94887.75;4991935;28;20189;-51
2023/03/20 03:42:56;;;;;;;11.27;7.53;;;;;;;9.43;53.92;94891.25;4991938;28;20193;-50
2023/03/20 03:45:30;;;;;;;14.00;8.17;;;;;;;9.43;53.92;94887.88;4991754;28;20224;-51
2023/03/20 03:48:02;;;;;;;11.07;8.23;;;;;;;9.42;54.17;94876.88;4991730;28;20236;-52
2023/03/20 03:50:32;;;;;;;14.10;8.53;;;;;;;9.42;54.05;94883.72;4991902;28;20315;-51
2023/03/20 03:53:04;;;;;;;14.37;8.87;;;;;;;9.39;53.96;94878.84;4991669;28;20645;-50
2023/03/20 03:55:36;;;;;;;13.73;8.23;;;;;;;9.40;53.94;94876.16;4991652;28;20189;-49
2023/03/20 03:58:09;;;;;;;12.03;8.07;;;;;;;9.35;54.00;94870.63;4991090;28;20197;-51
2023/03/20 04:00:37;;;;;;;13.57;8.23;;;;;;;9.40;53.97;94880.47;4991368;28;20228;-49
2023/03/20 04:03:07;;;;;;;14.27;8.03;;;;;;;9.37;54.02;94870.50;4991357;28;20261;-52
2023/03/20 04:05:37;;;;;;;19.23;9.20;;;;;;;9.37;54.02;94873.06;4991464;28;20220;-50
2023/03/20 04:08:07;;;;;;;12.27;8.37;;;;;;;9.37;54.10;94875.59;4991476;28;20193;-53
2023/03/20 04:10:34;;;;;;;12.97;7.90;;;;;;;9.29;53.71;94864.31;4991969;28;20271;-54
2023/03/20 04:13:01;;;;;;;15.23;8.53;;;;;;;9.34;54.22;94866.47;4990971;28;20645;-50
2023/03/20 04:15:29;;;;;;;11.37;7.63;;;;;;;9.35;54.15;94869.81;4990983;28;20190;-58
2023/03/20 04:17:56;;;;;;;14.57;8.10;;;;;;;9.34;54.12;94865.66;4991341;28;20540;-57
2023/03/20 04:20:23;;;;;;;14.47;7.90;;;;;;;9.22;54.24;94842.75;4991009;28;20560;-59
2023/03/20 04:22:50;;;;;;;8.33;7.03;;;;;;;9.34;54.02;94856.25;4991274;28;20201;-53
2023/03/20 04:25:18;;;;;;;11.73;7.67;;;;;;;9.35;54.09;94859.63;4990995;28;20192;-53
2023/03/20 04:27:45;;;;;;;12.17;7.57;;;;;;;9.36;54.11;94861.22;4991255;28;20185;-52
2023/03/20 04:30:12;;;;;;;13.77;8.47;;;;;;;9.24;54.19;94845.19;4990696;28;20193;-51
2023/03/20 04:32:40;;;;;;;13.43;8.10;;;;;;;9.37;54.06;94871.34;4991114;28;20208;-55
2023/03/20 04:35:08;;;;;;;12.30;7.97;;;;;;;9.39;54.15;94861.00;4990423;28;20193;-53
2023/03/20 04:37:35;;;;;;;11.17;7.87;;;;;;;9.40;54.17;94862.59;4990337;28;20637;-49
2023/03/20 04:40:03;;;;;;;11.20;7.80;;;;;;;9.43;54.14;94870.81;4990272;28;20208;-50
2023/03/20 04:42:30;;;;;;;11.07;7.33;;;;;;;9.47;54.13;94874.75;4990439;28;20715;-51
2023/03/20 04:44:56;;;;;;;11.13;8.10;;;;;;;9.50;54.11;94878.78;4990583;28;20189;-52
2023/03/20 04:47:23;;;;;;;11.77;8.03;;;;;;;9.54;54.16;94880.97;4990183;28;20216;-49
2023/03/20 04:49:51;;;;;;;10.97;7.93;;;;;;;9.62;54.11;94887.16;4990056;28;20216;-50
2023/03/20 04:52:18;;;;;;;12.30;8.33;;;;;;;9.68;53.92;94892.59;4990400;28;20204;-57
2023/03/20 04:54:45;;;;;;;14.00;8.83;;;;;;;9.77;53.79;94911.44;4990418;28;20184;-55
2023/03/20 04:57:12;;;;;;;11.07;7.97;;;;;;;9.84;53.76;94904.88;4990225;28;20239;-56
2023/03/20 04:59:39;;;;;;;14.63;7.77;;;;;;;9.92;53.54;94902.47;4990300;28;20185;-51
2023/03/20 05:02:05;;;;;;;13.50;7.90;;;;;;;10.02;53.50;94905.91;4990506;28;20243;-54
2023/03/20 05:04:32;;;;;;;13.53;9.13;;;;;;;10.14;53.50;94898.13;4990356;28;20196;-53
2023/03/20 05:07:00;;;;;;;14.30;8.67;;;;;;;10.24;53.37;94902.38;4990432;28;20189;-52
2023/03/20 05:09:27;;;;;;;14.00;8.00;;;;;;;10.38;53.22;94902.94;4990055;28;20200;-55
2023/03/20 05:11:54;;;;;;;12.93;9.40;;;;;;;10.49;53.13;94903.66;4990287;28;20205;-55
2023/03/20 05:14:21;;;;;;;12.47;7.97;;;;;;;10.63;52.85;94902.44;4990734;28;20193;-56
2023/03/20 05:16:48;;;;;;;12.17;8.40;;;;;;;10.80;52.60;94906.91;4990024;28;20214;-53
2023/03/20 05:19:15;;;;;;;15.57;8.23;;;;;;;11.00;52.12;94912.81;4989881;28;20177;-56
2023/03/20 05:21:42;;;;;;;16.83;7.80;;;;;;;11.23;51.71;94910.00;4990299;28;20220;-52
2023/03/20 05:24:10;;;;;;;14.73;8.60;;;;;;;11.45;51.43;94909.72;4989987;28;20668;-54
2023/03/20 05:26:37;;;;;;;13.10;8.13;;;;;;;11.63;51.19;94902.13;4990112;28;20201;-54
2023/03/20 05:29:04;;;;;;;12.00;8.53;;;;;;;11.92;50.60;94920.00;4989911;28;20593;-52
2023/03/20 05:31:31;;;;;;;15.30;9.30;;;;;;;12.14;50.47;94916.28;4989834;28;20715;-53
2023/03/20 05:33:58;;;;;;;13.10;8.73;;;;;;;12.38;50.40;94915.75;4989614;28;20200;-56
2023/03/20 05:36:25;;;;;;;18.37;8.27;;;;;;;12.64;50.06;94922.75;4989957;28;20309;-56
2023/03/20 05:38:51;;;;;;;14.37;7.93;;;;;;;12.91;50.00;94917.59;4989340;28;20243;-52
2023/03/20 05:41:20;;;;;;;16.97;9.63;;;;;;;13.27;49.62;94912.47;4990175;28;20228;-56
2023/03/20 05:43:47;;;;;;;11.83;7.70;;;;;;;13.58;49.38;94896.63;4990001;28;20204;-53
2023/03/20 05:46:14;;;;;;;14.10;8.23;;;;;;;14.05;49.32;94915.03;4989785;28;20649;-54
2023/03/20 05:48:41;;;;;;;17.47;9.47;;;;;;;14.47;48.88;94919.41;4990030;28;20203;-56
2023/03/20 05:51:07;;;;;;;14.33;8.33;;;;;;;14.93;48.42;94922.44;4989777;28;20189;-58
2023/03/20 05:53:34;;;;;;;11.40;7.97;;;;;;;15.40;48.05;94921.81;4989785;28;20196;-56
2023/03/20 05:56:01;;;;;;;13.23;8.60;;;;;;;15.85;47.47;94916.19;4989747;28;20232;-55
2023/03/20 05:58:30;;;;;;;8.53;6.10;;;;;;;16.54;69.71;94931.94;4989811;28;20270;-51
2023/03/20 06:00:57;;;;;;;9.77;6.00;;;;;;;17.26;68.08;94916.19;4989695;28;20189;-56
2023/03/20 06:03:24;;;;;;;12.60;6.87;;;;;;;17.93;65.77;94912.88;4990146;28;20215;-54
2023/03/20 06:05:51;;;;;;;12.53;7.17;;;;;;;18.51;64.74;94911.25;4989908;28;20256;-53
2023/03/20 06:08:18;;;;;;;15.50;6.73;;;;;;;19.02;62.50;94904.25;4989918;28;20189;-55
2023/03/20 06:10:45;;;;;;;16.77;7.67;;;;;;;19.49;60.35;94915.06;4989749;28;20199;-49
2023/03/20 06:13:12;;;;;;;29.07;9.87;;;;;;;19.90;58.63;94911.78;4990057;28;20680;-57
2023/03/20 06:15:40;;;;;;;14.83;8.73;;;;;;;20.29;55.83;94924.22;4989993;28;20197;-58
2023/03/20 06:18:07;;;;;;;15.73;8.93;;;;;;;20.63;53.76;94927.81;4990192;28;20208;-58
2023/03/20 06:20:34;;;;;;;20.23;8.73;;;;;;;20.94;52.12;94925.53;4989627;28;20197;-54
2023/03/20 06:23:01;;;;;;;20.07;9.20;;;;;;;21.24;50.69;94928.59;4989637;28;20255;-53
2023/03/20 06:25:28;;;;;;;16.10;8.53;;;;;;;21.53;49.69;94926.66;4989470;28;20228;-60
2023/03/20 06:27:55;;;;;;;19.03;9.07;;;;;;;21.79;48.76;94926.63;4990017;28;20289;-59
2023/03/20 06:30:21;;;;;;;16.70;9.30;;;;;;;22.07;47.85;94922.22;4989505;28;20665;-53
2023/03/20 06:32:50;;;;;;;18.05;9.52;;;;;;;22.36;46.82;94924.38;4990037;28;20216;-54
2023/03/20 06:35:17;;;;;;;13.55;8.95;;;;;;;22.65;46.24;94925.69;4988962;28;20197;-51
2023/03/20 06:37:44;;;;;;;13.85;9.18;;;;;;;22.89;45.71;94932.00;4989122;28;20624;-52
2023/03/20 06:40:11;;;;;;;19.17;8.88;;;;;;;23.19;44.90;94936.72;4989515;28;20200;-53
2023/03/20 06:42:38;;;;;;;13.13;9.48;;;;;;;23.46;44.47;94932.09;4989126;28;20263;-54
2023/03/20 06:45:06;;;;;;;17.40;9.80;;;;;;;23.73;43.54;94928.31;4989260;28;20688;-49
2023/03/20 06:47:33;;;;;;;17.88;9.10;;;;;;;24.01;42.95;94935.72;4989130;28;20243;-50
2023/03/20 06:50:02;;;;;;;12.57;8.98;;;;;;;24.31;42.57;94918.53;4989430;28;20193;-51
2023/03/20 06:52:28;;;;;;;14.82;9.45;;;;;;;24.58;41.91;94930.34;4989122;28;20193;-55
2023/03/20 06:54:56;;;;;;;16.02;9.23;;;;;;;24.89;41.66;94929.34;4988954;28;20189;-51
2023/03/20 06:57:23;;;;;;;15.13;9.43;;;;;;;25.23;41.01;94916.66;4990655;28;20233;-50
2023/03/20 06:59:50;;;;;;;15.23;9.38;;;;;;;25.57;40.53;94933.47;4992907;28;20251;-51
2023/03/20 07:02:17;;;;;;;14.55;9.43;;;;;;;25.81;40.15;94912.56;4992604;28;20709;-51
2023/03/20 07:04:43;;;;;;;15.02;9.40;;;;;;;26.12;39.71;94927.97;4992501;28;20685;-52
2023/03/20 07:07:12;;;;;;;14.52;9.60;;;;;;;26.35;39.54;94919.28;4992560;28;20216;-53
2023/03/20 07:09:39;;;;;;;14.80;8.95;;;;;;;26.55;39.06;94916.31;4992760;28;20193;-51
2023/03/20 07:12:13;;;;;;;15.85;9.23;;;;;;;26.80;39.07;94909.97;4992832;28;20208;-53
2023/03/20 07:14:40;;;;;;;15.85;8.98;;;;;;;26.96;38.62;94907.41;4992917;28;20189;-54
2023/03/20 07:17:07;;;;;;;17.77;9.32;;;;;;;27.15;38.48;94909.84;4992657;28;20197;-55
2023/03/20 07:19:35;;;;;;;14.02;8.57;;;;;;;27.30;38.24;94904.88;4992296;28;20197;-57
2023/03/20 07:22:04;;;;;;;16.55;8.45;;;;;;;27.50;37.76;94907.03;4992474;28;20244;-54
2023/03/20 07:24:32;;;;;;;13.02;8.38;;;;;;;27.72;37.51;94907.97;4992115;28;20189;-57
2023/03/20 07:27:00;;;;;;;14.18;8.48;;;;;;;27.91;37.25;94907.72;4992395;28;20189;-51
2023/03/20 07:29:26;;;;;;;13.02;8.60;;;;;;;28.06;36.93;94917.66;4992288;28;20193;-54
2023/03/20 07:31:53;;;;;;;16.35;9.52;;;;;;;28.15;37.21;94909.13;4992395;28;20563;-57
2023/03/20 07:34:20;;;;;;;14.63;8.95;;;;;;;28.24;36.51;94920.81;4991931;28;20197;-47
2023/03/20 07:36:47;;;;;;;16.63;9.43;;;;;;;28.31;37.00;94923.28;4992152;28;20189;-51
2023/03/20 07:39:14;;;;;;;18.85;8.80;;;;;;;28.25;36.82;94892.69;4991841;28;20248;-50
2023/03/20 07:41:42;;;;;;;14.25;8.35;;;;;;;28.47;36.65;94919.03;4992501;28;20213;-51
2023/03/20 07:44:09;;;;;;;12.63;8.13;;;;;;;28.59;36.41;94919.72;4991808;28;20224;-50
2023/03/20 07:46:36;;;;;;;11.23;8.48;;;;;;;28.73;35.90;94920.94;4992385;28;20197;-53
2023/03/20 07:49:03;;;;;;;15.93;9.15;;;;;;;28.91;36.09;94927.72;4991843;28;20248;-50
2023/03/20 07:51:29;;;;;;;12.63;7.78;;;;;;;29.12;35.80;94917.44;4991712;28;20751;-52
2023/03/20 07:53:56;;;;;;;13.20;8.88;;;;;;;29.33;35.50;94923.72;4992040;28;20201;-49
2023/03/20 07:56:23;;;;;;;15.05;9.00;;;;;;;29.53;35.67;94921.25;4991526;28;20240;-52
2023/03/20 07:58:51;;;;;;;12.57;8.40;;;;;;;29.72;35.25;94919.06;4991797;28;20200;-51
2023/03/20 08:01:19;;;;;;;12.48;8.98;;;;;;;29.89;35.24;94924.22;4991499;28;20201;-51
2023/03/20 08:03:46;;;;;;;19.52;9.32;;;;;;;30.07;34.92;94921.16;4991503;28;20257;-51
2023/03/20 08:06:13;;;;;;;14.15;9.25;;;;;;;30.25;34.81;94917.34;4991265;28;20759;-50
2023/03/20 08:08:39;;;;;;;16.13;8.90;;;;;;;30.42;34.52;94917.97;4991353;28;20255;-49
2023/03/20 08:11:06;;;;;;;14.05;9.25;;;;;;;30.60;34.89;94913.28;4991398;28;20634;-52
2023/03/20 08:13:33;;;;;;;11.13;8.70;;;;;;;30.73;34.33;94915.47;4991697;28;20201;-51
2023/03/20 08:16:01;;;;;;;17.42;8.90;;;;;;;30.78;34.44;94910.22;4991084;28;20613;-51
2023/03/20 08:18:28;;;;;;;18.40;8.90;;;;;;;30.89;34.22;94919.78;4991203;28;20193;-51
2023/03/20 08:20:56;;;;;;;15.90;9.10;;;;;;;30.98;34.32;94920.06;4991263;28;20268;-50
2023/03/20 08:23:22;;;;;;;13.10;9.25;;;;;;;31.02;34.24;94918.50;4991124;28;20267;-54
2023/03/20 08:25:50;;;;;;;11.32;8.77;;;;;;;31.04;34.00;94908.44;4991363;28;20212;-49
2023/03/20 08:28:17;;;;;;;14.13;8.52;;;;;;;31.11;34.19;94916.13;4991251;28;20605;-49
2023/03/20 08:30:44;;;;;;;14.70;8.57;;;;;;;31.09;34.16;94916.41;4991342;28;20196;-50
2023/03/20 08:33:13;;;;;;;12.73;8.38;;;;;;;31.17;33.63;94923.00;4990583;28;20205;-58
2023/03/20 08:35:40;;;;;;;11.52;8.23;;;;;;;31.17;33.75;94917.72;4990886;28;20197;-52
2023/03/20 08:38:07;;;;;;;16.00;8.40;;;;;;;31.21;33.91;94916.94;4991167;28;20193;-54
2023/03/20 08:40:34;;;;;;;11.18;8.85;;;;;;;31.22;33.78;94913.25;4990820;28;20192;-53
2023/03/20 08:43:01;;;;;;;9.68;8.38;;;;;;;31.22;33.82;94923.81;4990624;28;20586;-50
2023/03/20 08:45:27;;;;;;;11.40;7.65;;;;;;;31.18;33.99;94914.84;4990931;28;20211;-50
2023/03/20 08:47:55;;;;;;;13.32;7.75;;;;;;;31.14;33.42;94910.34;4990892;28;20638;-49
2023/03/20 08:50:23;;;;;;;12.32;7.50;;;;;;;31.09;33.70;94916.41;4990527;28;20349;-49
2023/03/20 08:52:50;;;;;;;9.18;7.40;;;;;;;31.02;33.80;94907.13;4990614;28;20204;-52
2023/03/20 08:55:18;;;;;;;9.90;7.72;;;;;;;30.96;34.01;94911.63;4990547;28;20185;-50
2023/03/20 08:57:46;;;;;;;9.85;7.70;;;;;;;30.88;33.62;94912.91;4990465;28;20255;-48
2023/03/20 09:00:15;;;;;;;10.35;7.53;;;;;;;30.81;33.72;94911.56;4990414;28;20323;-54
2023/03/20 09:02:42;;;;;;;12.82;7.38;;;;;;;30.73;33.56;94905.72;4990440;28;20216;-54
2023/03/20 09:05:11;;;;;;;11.35;7.90;;;;;;;30.65;33.63;94908.03;4990226;28;20263;-50
2023/03/20 09:07:39;;;;;;;11.57;7.32;;;;;;;30.53;33.61;94908.25;4990514;28;20243;-55
2023/03/20 09:10:07;;;;;;;12.27;7.57;;;;;;;30.40;33.52;94904.25;4990648;28;20185;-51
2023/03/20 09:12:34;;;;;;;9.18;7.68;;;;;;;30.27;34.20;94898.59;4990589;28;20193;-49
2023/03/20 09:15:03;;;;;;;10.05;7.63;;;;;;;30.11;34.05;94895.88;4990199;28;20220;-50
2023/03/20 09:17:30;;;;;;;10.30;7.10;;;;;;;29.96;34.10;94898.41;4990245;28;20201;-48
2023/03/20 09:19:57;;;;;;;13.85;7.78;;;;;;;29.80;34.21;94889.59;4989610;28;20228;-50
2023/03/20 09:22:24;;;;;;;13.88;8.25;;;;;;;29.65;33.87;94895.53;4990061;28;20232;-48
2023/03/20 09:24:52;;;;;;;11.50;7.47;;;;;;;29.51;33.96;94894.34;4990445;28;20211;-51
2023/03/20 09:27:20;;;;;;;9.43;7.55;;;;;;;29.36;33.63;94889.75;4989928;28;20204;-49
2023/03/20 09:29:47;;;;;;;10.95;7.97;;;;;;;29.20;34.10;94878.28;4989941;28;20197;-50
2023/03/20 09:32:15;;;;;;;11.68;7.45;;;;;;;29.05;33.94;94883.38;4989989;28;20196;-51
2023/03/20 09:34:42;;;;;;;11.43;8.40;;;;;;;28.85;33.73;94868.16;4990040;28;20208;-50
2023/03/20 09:37:09;;;;;;;14.02;7.43;;;;;;;28.74;33.90;94874.34;4990262;28;20204;-51
2023/03/20 09:39:36;;;;;;;13.18;7.72;;;;;;;28.60;33.75;94873.16;4989901;28;20200;-50
2023/03/20 09:42:14;;;;;;;8.63;7.03;;;;;;;28.37;33.66;94858.38;4989904;28;20193;-52
2023/03/20 09:44:51;;;;;;;12.15;8.13;;;;;;;28.21;33.75;94863.44;4989634;28;20200;-57
2023/03/20 09:47:25;;;;;;;12.45;7.78;;;;;;;28.01;33.90;94852.63;4989726;28;20339;-59
2023/03/20 09:50:13;;;;;;;10.85;7.32;;;;;;;27.84;33.51;94844.00;4989317;28;20292;-51
2023/03/20 09:52:44;;;;;;;15.50;7.95;;;;;;;27.65;33.57;94833.72;4989949;28;20204;-50
2023/03/20 09:55:15;;;;;;;11.77;7.72;;;;;;;27.51;33.69;94835.88;4989287;28;20204;-49
2023/03/20 09:57:48;;;;;;;11.15;7.38;;;;;;;27.29;33.65;94814.00;4989498;28;20229;-50
2023/03/20 10:00:18;;;;;;;12.93;8.18;;;;;;;27.21;33.85;94823.06;4989270;28;20201;-52
2023/03/20 10:02:50;;;;;;;12.38;7.78;;;;;;;27.03;33.57;94810.13;4990231;28;20220;-53
2023/03/20 10:05:22;;;;;;;8.05;7.05;;;;;;;26.82;33.77;94813.44;4989629;28;20280;-50
2023/03/20 10:07:50;;;;;;;16.63;7.32;;;;;;;26.64;33.83;94804.75;4989589;28;20279;-55
2023/03/20 10:10:19;;;;;;;14.80;7.07;;;;;;;26.56;34.17;94799.88;4989667;28;20844;-51
2023/03/20 10:13:02;;;;;;;10.75;7.15;;;;;;;26.47;34.25;94803.91;4989667;28;20283;-55
2023/03/20 10:15:41;;;;;;;9.57;7.03;;;;;;;26.35;34.04;94796.03;4989515;28;20196;-52
2023/03/20 10:18:17;;;;;;;14.43;7.43;;;;;;;26.25;34.09;94790.56;4989264;28;20192;-56
2023/03/20 10:20:51;;;;;;;9.88;7.40;;;;;;;26.11;34.02;94781.38;4989546;28;20197;-55
2023/03/20 10:23:26;;;;;;;12.85;7.53;;;;;;;26.03;34.22;94793.81;4989060;28;20221;-57
2023/03/20 10:25:56;;;;;;;12.32;7.47;;;;;;;25.93;34.02;94793.63;4989718;28;20204;-55
2023/03/20 10:28:32;;;;;;;14.48;7.40;;;;;;;25.85;34.13;94796.59;4989296;28;20197;-58
2023/03/20 10:31:13;;;;;;;13.48;7.18;;;;;;;25.76;34.27;94783.06;4990959;28;20196;-53
2023/03/20 10:33:53;;;;;;;10.15;7.07;;;;;;;25.68;34.36;94778.13;4993103;28;20724;-51
2023/03/20 10:36:34;;;;;;;10.75;6.93;;;;;;;25.59;34.17;94776.09;4993260;28;20192;-51
2023/03/20 10:39:09;;;;;;;10.38;7.57;;;;;;;25.53;34.24;94780.44;4993396;28;20611;-51
2023/03/20 10:41:38;;;;;;;10.60;7.80;;;;;;;25.48;34.19;94769.84;4992848;28;20193;-53
2023/03/20 10:44:14;;;;;;;12.35;7.65;;;;;;;25.44;34.60;94768.72;4992839;28;20220;-52
2023/03/20 10:46:45;;;;;;;10.98;7.47;;;;;;;25.39;34.06;94756.31;4992849;28;20193;-49
2023/03/20 10:49:19;;;;;;;14.90;7.32;;;;;;;25.37;34.45;94754.91;4992808;28;20196;-50
2023/03/20 10:51:49;;;;;;;9.32;7.13;;;;;;;25.33;34.36;94745.94;4992587;28;20193;-49
2023/03/20 10:54:24;;;;;;;9.60;7.20;;;;;;;25.29;34.49;94748.19;4992961;28;20193;-52
2023/03/20 10:56:55;;;;;;;10.23;7.05;;;;;;;25.22;34.17;94745.72;4992730;28;20340;-52
2023/03/20 10:59:26;;;;;;;12.05;7.10;;;;;;;25.21;34.52;94740.69;4992688;28;20247;-51
2023/03/20 11:01:53;;;;;;;10.98;7.72;;;;;;;25.17;34.55;94737.75;4992770;28;20300;-50
2023/03/20 11:04:20;;;;;;;10.65;7.68;;;;;;;25.13;34.36;94730.53;4992581;28;20224;-50
2023/03/20 11:06:54;;;;;;;10.90;7.00;;;;;;;25.13;34.34;94739.22;4992721;28;20236;-50
2023/03/20 11:09:25;;;;;;;17.20;7.47;;;;;;;25.08;34.44;94740.88;4992510;28;20854;-49
2023/03/20 11:11:56;;;;;;;9.05;6.72;;;;;;;25.02;34.15;94732.13;4992354;28;20189;-50
2023/03/20 11:14:26;;;;;;;11.15;7.22;;;;;;;24.98;34.38;94721.31;4992482;28;20197;-52
2023/03/20 11:16:55;;;;;;;10.60;6.43;;;;;;;24.83;34.35;94697.41;4992386;28;20197;-50
2023/03/20 11:19:23;;;;;;;10.00;7.20;;;;;;;24.93;34.31;94709.94;4992417;28;20243;-50
2023/03/20 11:21:54;;;;;;;9.88;7.35;;;;;;;24.91;34.37;94714.56;4992705;28;20318;-53
2023/03/20 11:24:35;;;;;;;10.43;6.90;;;;;;;24.87;34.46;94700.34;4992553;28;20260;-55
2023/03/20 11:27:07;;;;;;;10.55;7.07;;;;;;;24.84;34.42;94706.06;4992521;28;20255;-53
2023/03/20 11:29:36;;;;;;;9.25;7.25;;;;;;;24.82;34.69;94700.25;4992561;28;20193;-55
2023/03/20 11:32:14;;;;;;;9.25;7.25;;;;;;;24.80;34.54;94697.84;4992244;28;20185;-51
2023/03/20 11:34:42;;;;;;;13.68;7.30;;;;;;;24.78;34.20;94686.81;4992618;28;20284;-50
2023/03/20 11:37:22;;;;;;;11.27;6.93;;;;;;;24.76;34.51;94684.44;4992157;28;20642;-57
2023/03/20 11:40:00;;;;;;;10.73;6.20;;;;;;;24.75;34.49;94682.06;4992656;28;20220;-58